createdAt,value
2024-02-04T00:00:03.150Z,24.75
2024-02-04T00:02:29.956Z,26.25
2024-02-04T00:04:56.800Z,25.33
2024-02-04T00:07:23.872Z,24.70
2024-02-04T00:09:50.790Z,25.33
2024-02-04T00:12:17.632Z,25.35
2024-02-04T00:14:44.438Z,24.25
2024-02-04T00:17:11.238Z,26.13
2024-02-04T00:19:38.142Z,25.85
2024-02-04T00:22:05.188Z,27.30
2024-02-04T00:24:32.120Z,25.77
2024-02-04T00:26:58.946Z,26.15
2024-02-04T00:29:25.869Z,27.52
2024-02-04T00:31:52.649Z,27.67
2024-02-04T00:34:19.551Z,26.35
2024-02-04T00:36:46.398Z,24.30
2024-02-04T00:39:13.161Z,25.85
2024-02-04T00:41:39.938Z,26.23
2024-02-04T00:44:06.743Z,25.65
2024-02-04T00:46:33.553Z,25.85
2024-02-04T00:49:00.513Z,26.20
2024-02-04T00:51:27.494Z,28.25
2024-02-04T00:53:54.336Z,27.40
2024-02-04T00:56:21.146Z,25.92
2024-02-04T00:58:47.911Z,28.00
2024-02-04T01:01:14.849Z,27.15
2024-02-04T01:03:41.753Z,25.98
2024-02-04T01:06:08.514Z,27.60
2024-02-04T01:08:35.297Z,27.48
2024-02-04T01:11:02.124Z,27.15
2024-02-04T01:13:29.621Z,29.55
2024-02-04T01:15:56.484Z,32.67
2024-02-04T01:18:23.328Z,34.13
2024-02-04T01:20:50.237Z,37.45
2024-02-04T01:23:17.023Z,38.22
2024-02-04T01:25:44.219Z,39.45
2024-02-04T01:28:11.469Z,40.45
2024-02-04T01:30:38.362Z,40.22
2024-02-04T01:33:05.465Z,41.92
2024-02-04T01:35:32.281Z,42.72
2024-02-04T01:37:59.103Z,41.13
2024-02-04T01:40:25.938Z,43.10
2024-02-04T01:42:52.768Z,43.65
2024-02-04T01:45:19.577Z,42.92
2024-02-04T01:47:46.533Z,41.72
2024-02-04T01:50:13.398Z,42.80
2024-02-04T01:52:42.108Z,45.50
2024-02-04T01:55:09.752Z,46.45
2024-02-04T01:57:36.710Z,44.88
2024-02-04T02:00:04.524Z,47.50
2024-02-04T02:02:33.726Z,49.28
2024-02-04T02:05:00.864Z,51.10
2024-02-04T02:07:27.786Z,49.88
2024-02-04T02:09:55.854Z,50.42
2024-02-04T02:12:28.367Z,52.95
2024-02-04T02:15:27.104Z,53.35
2024-02-04T02:18:03.559Z,51.15
2024-02-04T02:21:09.234Z,52.58
2024-02-04T02:23:39.881Z,52.35
2024-02-04T02:26:07.931Z,51.47
2024-02-04T02:28:34.712Z,51.95
2024-02-04T02:31:04.510Z,52.78
2024-02-04T02:33:33.310Z,53.97
2024-02-04T02:36:03.567Z,51.90
2024-02-04T02:38:38.583Z,55.58
2024-02-04T02:41:09.742Z,56.03
2024-02-04T02:43:40.837Z,55.90
2024-02-04T02:46:08.898Z,56.28
2024-02-04T02:48:36.860Z,54.50
2024-02-04T02:51:03.809Z,53.08
2024-02-04T02:53:30.618Z,57.22
2024-02-04T02:55:57.435Z,57.83
2024-02-04T02:58:24.216Z,56.60
2024-02-04T03:00:51.038Z,57.67
2024-02-04T03:03:17.862Z,57.97
2024-02-04T03:05:44.651Z,57.88
2024-02-04T03:08:11.439Z,59.42
2024-02-04T03:10:38.183Z,57.50
2024-02-04T03:13:05.131Z,54.33
2024-02-04T03:15:32.005Z,54.80
2024-02-04T03:17:58.904Z,55.45
2024-02-04T03:20:25.721Z,52.83
2024-02-04T03:22:52.596Z,51.88
2024-02-04T03:25:19.431Z,53.22
2024-02-04T03:27:46.271Z,48.95
2024-02-04T03:30:13.219Z,47.22
2024-02-04T03:32:40.059Z,44.30
2024-02-04T03:35:07.083Z,44.63
2024-02-04T03:37:33.907Z,41.17
2024-02-04T03:40:00.909Z,35.15
2024-02-04T03:42:27.897Z,36.00
2024-02-04T03:44:55.441Z,35.80
2024-02-04T03:47:22.188Z,41.15
2024-02-04T03:49:49.049Z,41.90
2024-02-04T03:52:15.862Z,41.67
2024-02-04T03:54:42.706Z,41.72
2024-02-04T03:57:09.469Z,39.13
2024-02-04T03:59:36.208Z,39.33
2024-02-04T04:02:03.014Z,34.42
2024-02-04T04:04:30.080Z,32.97
2024-02-04T04:06:57.060Z,30.40
2024-02-04T04:09:23.967Z,29.85
2024-02-04T04:11:50.875Z,27.42
2024-02-04T04:14:17.684Z,25.40
2024-02-04T04:16:44.506Z,27.10
2024-02-04T04:19:11.499Z,27.60
2024-02-04T04:21:39.288Z,26.90
2024-02-04T04:24:06.447Z,26.23
2024-02-04T04:26:33.253Z,25.65
2024-02-04T04:29:00.073Z,26.20
2024-02-04T04:31:26.918Z,24.35
2024-02-04T04:33:54.009Z,23.48
2024-02-04T04:36:20.933Z,24.27
2024-02-04T04:38:47.794Z,24.75
2024-02-04T04:41:14.622Z,25.23
2024-02-04T04:43:41.417Z,25.38
2024-02-04T04:46:08.259Z,25.10
2024-02-04T04:48:35.274Z,26.80
2024-02-04T04:51:02.117Z,26.75
2024-02-04T04:53:28.943Z,26.33
2024-02-04T04:55:55.786Z,26.60
2024-02-04T04:58:22.569Z,27.67
2024-02-04T05:00:49.471Z,27.23
2024-02-04T05:03:16.343Z,27.85
2024-02-04T05:05:43.110Z,27.60
2024-02-04T05:08:09.963Z,27.70
2024-02-04T05:10:36.791Z,29.58
2024-02-04T05:13:03.710Z,29.20
2024-02-04T05:15:30.567Z,29.67
2024-02-04T05:17:57.411Z,29.67
2024-02-04T05:20:24.223Z,27.27
2024-02-04T05:22:51.025Z,27.67
2024-02-04T05:25:17.842Z,27.00
2024-02-04T05:27:44.764Z,28.25
2024-02-04T05:30:12.216Z,25.95
2024-02-04T05:32:39.068Z,22.10
2024-02-04T05:35:06.134Z,21.73
2024-02-04T05:37:32.893Z,20.65
2024-02-04T05:39:59.729Z,20.55
2024-02-04T05:42:26.607Z,20.65
2024-02-04T05:44:53.421Z,20.85
2024-02-04T05:47:20.234Z,20.48
2024-02-04T05:49:47.238Z,20.33
2024-02-04T05:52:14.285Z,19.90
2024-02-04T05:54:41.216Z,19.15
2024-02-04T05:57:08.439Z,18.88
2024-02-04T05:59:35.636Z,18.85
2024-02-04T06:02:02.476Z,19.33
2024-02-04T06:04:31.186Z,18.50
2024-02-04T06:06:58.089Z,19.65
2024-02-04T06:09:24.978Z,19.00
2024-02-04T06:11:51.816Z,18.17
2024-02-04T06:14:18.592Z,18.23
2024-02-04T06:16:45.342Z,19.15
2024-02-04T06:19:14.994Z,18.15
2024-02-04T06:21:41.924Z,19.83
2024-02-04T06:24:08.773Z,18.83
2024-02-04T06:26:38.974Z,19.30
2024-02-04T06:29:05.810Z,18.73
2024-02-04T06:31:32.587Z,17.70
2024-02-04T06:33:59.575Z,18.65
2024-02-04T06:36:26.489Z,18.60
2024-02-04T06:38:53.350Z,17.13
2024-02-04T06:41:20.164Z,19.80
2024-02-04T06:43:46.976Z,20.85
2024-02-04T06:46:13.893Z,22.77
2024-02-04T06:48:40.733Z,21.80
2024-02-04T06:51:07.529Z,22.83
2024-02-04T06:53:34.766Z,22.77
2024-02-04T06:56:01.560Z,22.23
2024-02-04T06:58:28.364Z,23.65
2024-02-04T07:00:55.189Z,21.55
2024-02-04T07:03:22.193Z,22.85
2024-02-04T07:05:49.074Z,23.52
2024-02-04T07:08:15.876Z,23.58
2024-02-04T07:10:42.717Z,24.30
2024-02-04T07:13:09.802Z,25.13
2024-02-04T07:15:36.697Z,25.35
2024-02-04T07:18:03.691Z,24.63
2024-02-04T07:20:30.554Z,24.05
2024-02-04T07:22:57.397Z,23.30
2024-02-04T07:25:24.135Z,25.23
2024-02-04T07:27:50.964Z,24.52
2024-02-04T07:30:18.347Z,23.05
2024-02-04T07:32:45.228Z,24.25
2024-02-04T07:35:12.200Z,22.65
2024-02-04T07:37:39.046Z,22.05
2024-02-04T07:40:06.651Z,23.08
2024-02-04T07:42:33.707Z,22.58
2024-02-04T07:45:00.489Z,21.75
2024-02-04T07:47:27.283Z,21.60
2024-02-04T07:49:54.263Z,24.10
2024-02-04T07:52:21.112Z,19.70
2024-02-04T07:54:48.069Z,18.00
2024-02-04T07:57:14.854Z,21.20
2024-02-04T07:59:41.640Z,22.50
2024-02-04T08:02:08.491Z,24.10
2024-02-04T08:04:35.547Z,24.02
2024-02-04T08:07:03.278Z,22.13
2024-02-04T08:09:30.173Z,22.90
2024-02-04T08:11:59.847Z,22.00
2024-02-04T08:14:26.953Z,17.48
2024-02-04T08:16:53.789Z,17.73
2024-02-04T08:19:20.756Z,17.95
2024-02-04T08:21:47.664Z,18.95
2024-02-04T08:24:14.462Z,18.77
2024-02-04T08:26:41.377Z,18.85
2024-02-04T08:29:08.162Z,19.13
2024-02-04T08:31:35.018Z,17.77
2024-02-04T08:34:01.961Z,14.70
2024-02-04T08:36:28.816Z,14.85
2024-02-04T08:38:55.663Z,14.80
2024-02-04T08:41:22.423Z,13.88
2024-02-04T08:43:49.248Z,14.43
2024-02-04T08:46:16.158Z,14.65
2024-02-04T08:48:43.304Z,16.05
2024-02-04T08:51:13.472Z,17.95
2024-02-04T08:53:40.719Z,17.33
2024-02-04T08:56:08.025Z,18.58
2024-02-04T08:58:34.909Z,17.85
2024-02-04T09:01:01.744Z,18.83
2024-02-04T09:03:28.662Z,20.38
2024-02-04T09:05:55.487Z,19.13
2024-02-04T09:08:22.335Z,19.70
2024-02-04T09:10:49.184Z,20.88
2024-02-04T09:13:19.095Z,20.48
2024-02-04T09:15:45.973Z,20.25
2024-02-04T09:18:12.851Z,21.23
2024-02-04T09:20:39.837Z,21.88
2024-02-04T09:23:06.666Z,21.73
2024-02-04T09:25:33.602Z,22.27
2024-02-04T09:28:00.604Z,23.00
2024-02-04T09:30:27.616Z,22.83
2024-02-04T09:32:54.674Z,23.35
2024-02-04T09:35:21.785Z,23.50
2024-02-04T09:37:48.827Z,25.30
2024-02-04T09:40:16.074Z,23.10
2024-02-04T09:42:43.076Z,22.17
2024-02-04T09:45:11.014Z,22.83
2024-02-04T09:47:40.044Z,23.20
2024-02-04T09:50:07.419Z,23.83
2024-02-04T09:52:37.610Z,23.98
2024-02-04T09:55:06.102Z,22.83
2024-02-04T09:57:35.913Z,30.30
2024-02-04T10:00:06.438Z,23.17
2024-02-04T10:02:34.086Z,25.45
2024-02-04T10:05:01.453Z,22.60
2024-02-04T10:07:28.598Z,24.38
2024-02-04T10:09:56.315Z,23.45
2024-02-04T10:12:23.330Z,24.75
2024-02-04T10:14:53.255Z,24.50
2024-02-04T10:17:20.982Z,25.23
2024-02-04T10:19:50.766Z,26.25
2024-02-04T10:22:17.824Z,26.70
2024-02-04T10:24:44.905Z,29.20
2024-02-04T10:27:16.292Z,28.20
2024-02-04T10:29:49.643Z,26.85
2024-02-04T10:32:21.788Z,28.05
2024-02-04T10:34:51.286Z,28.33
2024-02-04T10:37:18.320Z,27.73
2024-02-04T10:39:45.234Z,29.42
2024-02-04T10:42:14.423Z,28.60
2024-02-04T10:44:46.529Z,27.70
2024-02-04T10:47:18.032Z,28.20
2024-02-04T10:49:52.277Z,28.35
2024-02-04T10:52:19.655Z,27.40
2024-02-04T10:54:47.682Z,27.38
2024-02-04T10:57:20.110Z,31.85
2024-02-04T10:59:49.455Z,30.08
2024-02-04T11:02:21.044Z,29.58
2024-02-04T11:04:50.709Z,29.63
2024-02-04T11:07:19.289Z,30.20
2024-02-04T11:09:47.763Z,31.08
2024-02-04T11:12:17.749Z,29.80
2024-02-04T11:14:51.763Z,31.00
2024-02-04T11:17:27.812Z,29.48
2024-02-04T11:20:27.240Z,32.80
2024-02-04T11:22:54.018Z,30.67
2024-02-04T11:25:39.640Z,32.45
2024-02-04T11:28:07.244Z,32.40
2024-02-04T11:30:35.384Z,30.40
2024-02-04T11:33:02.668Z,31.17
2024-02-04T11:35:29.744Z,33.45
2024-02-04T11:37:59.942Z,34.58
2024-02-04T11:40:32.478Z,35.75
2024-02-04T11:43:11.604Z,33.40
2024-02-04T11:45:40.280Z,33.95
2024-02-04T11:48:12.014Z,39.15
2024-02-04T11:50:40.583Z,37.15
2024-02-04T11:53:12.899Z,37.47
2024-02-04T11:55:45.442Z,39.95
2024-02-04T11:58:13.972Z,36.55
2024-02-04T12:00:44.520Z,40.85
2024-02-04T12:03:11.413Z,43.10
2024-02-04T12:05:39.213Z,38.15
2024-02-04T12:08:08.136Z,43.95
2024-02-04T12:10:37.092Z,44.45
2024-02-04T12:13:05.431Z,43.85
2024-02-04T12:15:33.462Z,41.60
2024-02-04T12:18:13.565Z,40.10
2024-02-04T12:20:40.568Z,40.22
2024-02-04T12:23:08.424Z,42.72
2024-02-04T12:25:36.726Z,40.90
2024-02-04T12:28:04.492Z,41.00
2024-02-04T12:30:32.532Z,41.78
2024-02-04T12:33:00.988Z,40.70
2024-02-04T12:35:28.776Z,36.35
2024-02-04T12:37:57.109Z,38.92
2024-02-04T12:40:28.136Z,30.65
2024-02-04T12:43:05.706Z,35.97
2024-02-04T12:45:34.207Z,36.05
2024-02-04T12:48:01.237Z,37.20
2024-02-04T12:50:28.172Z,35.75
2024-02-04T12:53:06.894Z,37.92
2024-02-04T12:55:35.292Z,34.80
2024-02-04T12:58:13.876Z,37.63
2024-02-04T13:00:40.973Z,34.33
2024-02-04T13:03:09.079Z,34.00
2024-02-04T13:05:36.836Z,32.70
2024-02-04T13:08:05.542Z,34.58
2024-02-04T13:10:34.030Z,34.28
2024-02-04T13:13:07.984Z,37.88
2024-02-04T13:15:40.859Z,36.40
2024-02-04T13:18:09.584Z,37.13
2024-02-04T13:20:36.784Z,35.47
2024-02-04T13:23:03.618Z,32.38
2024-02-04T13:25:30.435Z,30.63
2024-02-04T13:27:57.577Z,33.70
2024-02-04T13:30:24.408Z,35.63
2024-02-04T13:32:51.954Z,32.80
2024-02-04T13:35:20.515Z,32.38
2024-02-04T13:37:49.466Z,31.83
2024-02-04T13:40:17.157Z,34.20
2024-02-04T13:42:44.596Z,31.88
2024-02-04T13:45:12.485Z,32.45
2024-02-04T13:47:39.317Z,31.05
2024-02-04T13:50:07.082Z,29.85
2024-02-04T13:52:33.993Z,26.85
2024-02-04T13:55:00.883Z,29.30
2024-02-04T13:57:27.773Z,30.05
2024-02-04T13:59:55.215Z,32.08
2024-02-04T14:02:22.051Z,30.63
2024-02-04T14:04:48.896Z,29.55
2024-02-04T14:07:15.818Z,29.73
2024-02-04T14:09:42.669Z,28.63
2024-02-04T14:12:09.508Z,29.58
2024-02-04T14:14:36.249Z,28.33
2024-02-04T14:17:02.974Z,30.02
2024-02-04T14:19:29.798Z,29.48
2024-02-04T14:21:56.633Z,28.92
2024-02-04T14:24:23.491Z,27.48
2024-02-04T14:26:56.967Z,30.63
2024-02-04T14:29:23.740Z,28.35
2024-02-04T14:31:50.624Z,26.73
2024-02-04T14:34:17.470Z,27.80
2024-02-04T14:36:44.448Z,28.00
2024-02-04T14:39:11.281Z,27.05
2024-02-04T14:41:38.600Z,27.77
2024-02-04T14:44:05.584Z,29.48
2024-02-04T14:46:32.403Z,30.00
2024-02-04T14:48:59.325Z,34.03
2024-02-04T14:51:26.124Z,37.33
2024-02-04T14:53:52.928Z,40.97
2024-02-04T14:56:19.719Z,42.03
2024-02-04T14:58:46.523Z,44.22
2024-02-04T15:01:13.369Z,45.88
2024-02-04T15:03:40.188Z,47.78
2024-02-04T15:06:07.146Z,45.30
2024-02-04T15:08:34.054Z,46.53
2024-02-04T15:11:00.831Z,45.80
2024-02-04T15:13:33.908Z,47.10
2024-02-04T15:16:01.522Z,45.25
2024-02-04T15:18:28.475Z,46.88
2024-02-04T15:20:55.504Z,48.60
2024-02-04T15:23:22.634Z,48.00
2024-02-04T15:25:49.504Z,48.50
2024-02-04T15:28:16.820Z,48.00
2024-02-04T15:30:43.877Z,48.13
2024-02-04T15:33:10.870Z,46.25
2024-02-04T15:35:37.893Z,47.22
2024-02-04T15:38:04.814Z,49.17
2024-02-04T15:40:31.546Z,45.30
2024-02-04T15:42:58.408Z,46.45
2024-02-04T15:45:25.243Z,47.60
2024-02-04T15:47:52.776Z,50.83
2024-02-04T15:50:20.081Z,48.70
2024-02-04T15:52:50.863Z,50.28
2024-02-04T15:55:18.828Z,47.70
2024-02-04T15:57:50.723Z,49.13
2024-02-04T16:00:21.873Z,47.63
2024-02-04T16:02:49.354Z,49.37
2024-02-04T16:05:17.046Z,48.78
2024-02-04T16:07:44.744Z,47.95
2024-02-04T16:10:19.728Z,49.80
2024-02-04T16:12:55.436Z,47.88
2024-02-04T16:15:30.193Z,48.78
2024-02-04T16:17:57.642Z,49.47
2024-02-04T16:20:24.930Z,49.92
2024-02-04T16:22:51.747Z,52.50
2024-02-04T16:25:19.576Z,52.58
2024-02-04T16:27:46.812Z,51.20
2024-02-04T16:30:14.088Z,50.03
2024-02-04T16:32:41.320Z,51.47
2024-02-04T16:35:09.092Z,52.40
2024-02-04T16:37:36.141Z,53.72
2024-02-04T16:40:03.013Z,54.85
2024-02-04T16:42:30.000Z,51.55
2024-02-04T16:44:56.773Z,52.17
2024-02-04T16:47:23.541Z,53.10
2024-02-04T16:49:50.334Z,51.47
2024-02-04T16:52:17.154Z,52.80
2024-02-04T16:54:43.892Z,52.72
2024-02-04T16:57:11.262Z,54.90
2024-02-04T16:59:38.019Z,52.85
2024-02-04T17:02:05.301Z,52.53
2024-02-04T17:04:32.460Z,53.67
2024-02-04T17:06:59.805Z,54.35
2024-02-04T17:09:27.009Z,52.80
2024-02-04T17:11:53.973Z,52.80
2024-02-04T17:14:21.174Z,52.67
2024-02-04T17:17:06.166Z,54.30
2024-02-04T17:19:59.501Z,53.75
2024-02-04T17:22:27.127Z,52.72
2024-02-04T17:24:56.757Z,53.28
2024-02-04T17:27:25.885Z,55.17
2024-02-04T17:29:52.973Z,55.15
2024-02-04T17:32:20.009Z,55.53
2024-02-04T17:34:47.059Z,55.28
2024-02-04T17:37:13.969Z,54.15
2024-02-04T17:39:40.764Z,57.47
2024-02-04T17:42:07.607Z,56.92
2024-02-04T17:44:34.355Z,57.20
2024-02-04T17:47:01.659Z,56.67
2024-02-04T17:49:28.886Z,55.45
2024-02-04T17:51:55.751Z,55.53
2024-02-04T17:54:22.590Z,56.15
2024-02-04T17:56:49.414Z,58.95
2024-02-04T17:59:16.198Z,57.63
2024-02-04T18:01:43.096Z,57.42
2024-02-04T18:04:10.167Z,58.55
2024-02-04T18:06:40.607Z,58.00
2024-02-04T18:09:08.205Z,60.60
2024-02-04T18:11:35.087Z,60.35
2024-02-04T18:14:01.867Z,58.80
2024-02-04T18:16:29.481Z,61.42
2024-02-04T18:18:56.407Z,61.22
2024-02-04T18:21:24.332Z,60.33
2024-02-04T18:23:52.418Z,63.50
2024-02-04T18:26:23.168Z,62.35
2024-02-04T18:28:50.912Z,61.47
2024-02-04T18:31:18.027Z,64.65
2024-02-04T18:33:45.244Z,65.30
2024-02-04T18:36:13.358Z,66.75
2024-02-04T18:38:40.127Z,62.42
2024-02-04T18:41:10.077Z,61.55
2024-02-04T18:43:37.141Z,63.63
2024-02-04T18:46:03.960Z,64.95
2024-02-04T18:48:30.853Z,64.40
2024-02-04T18:50:58.539Z,64.28
2024-02-04T18:53:25.514Z,62.72
2024-02-04T18:55:52.348Z,62.53
2024-02-04T18:58:19.158Z,62.17
2024-02-04T19:00:46.001Z,63.13
2024-02-04T19:03:12.906Z,64.25
2024-02-04T19:05:40.497Z,68.25
2024-02-04T19:08:08.031Z,64.13
2024-02-04T19:10:36.252Z,63.28
2024-02-04T19:13:03.167Z,65.93
2024-02-04T19:15:30.527Z,70.20
2024-02-04T19:17:57.340Z,70.20
2024-02-04T19:20:24.159Z,68.70
2024-02-04T19:22:51.650Z,67.85
2024-02-04T19:25:19.848Z,70.15
2024-02-04T19:27:51.433Z,70.30
2024-02-04T19:30:19.528Z,70.82
2024-02-04T19:32:47.248Z,70.13
2024-02-04T19:35:15.557Z,70.47
2024-02-04T19:37:43.574Z,71.00
2024-02-04T19:40:12.312Z,70.68
2024-02-04T19:42:40.225Z,76.35
2024-02-04T19:45:08.073Z,72.57
2024-02-04T19:47:34.905Z,71.38
2024-02-04T19:50:02.315Z,72.43
2024-02-04T19:52:29.252Z,72.82
2024-02-04T19:54:56.085Z,71.43
2024-02-04T19:57:22.864Z,69.82
2024-02-04T19:59:49.600Z,71.90
2024-02-04T20:02:16.357Z,73.30
2024-02-04T20:04:43.261Z,71.43
2024-02-04T20:07:10.182Z,72.38
2024-02-04T20:09:37.034Z,73.28
2024-02-04T20:12:07.894Z,73.85
2024-02-04T20:14:35.209Z,72.78
2024-02-04T20:17:01.994Z,72.18
2024-02-04T20:19:28.828Z,75.30
2024-02-04T20:21:55.752Z,74.18
2024-02-04T20:24:22.600Z,74.72
2024-02-04T20:26:49.466Z,72.22
2024-02-04T20:29:16.199Z,73.80
2024-02-04T20:31:43.068Z,71.07
2024-02-04T20:34:10.072Z,70.35
2024-02-04T20:36:37.543Z,67.47
2024-02-04T20:39:04.435Z,67.63
2024-02-04T20:41:31.238Z,70.15
2024-02-04T20:43:58.131Z,69.25
2024-02-04T20:46:25.072Z,67.75
2024-02-04T20:48:51.948Z,69.13
2024-02-04T20:51:18.717Z,71.40
2024-02-04T20:53:45.590Z,68.15
2024-02-04T20:56:16.364Z,69.97
2024-02-04T20:58:43.164Z,68.00
2024-02-04T21:01:10.654Z,67.63
2024-02-04T21:03:37.581Z,67.43
2024-02-04T21:06:04.472Z,67.90
2024-02-04T21:08:31.271Z,67.90
2024-02-04T21:10:58.054Z,66.55
2024-02-04T21:13:24.945Z,65.80
2024-02-04T21:15:51.794Z,60.88
2024-02-04T21:18:18.683Z,64.47
2024-02-04T21:20:45.490Z,63.90
2024-02-04T21:23:12.423Z,64.45
2024-02-04T21:25:39.258Z,63.78
2024-02-04T21:28:06.242Z,62.95
2024-02-04T21:30:33.175Z,60.38
2024-02-04T21:33:00.625Z,59.17
2024-02-04T21:35:27.402Z,59.33
2024-02-04T21:37:54.149Z,63.92
2024-02-04T21:40:23.734Z,63.60
2024-02-04T21:42:50.643Z,66.70
2024-02-04T21:45:17.797Z,69.70
2024-02-04T21:47:44.688Z,67.40
2024-02-04T21:50:11.526Z,67.13
2024-02-04T21:52:38.485Z,69.65
2024-02-04T21:55:05.592Z,65.57
2024-02-04T21:57:32.498Z,68.28
2024-02-04T21:59:59.314Z,68.82
2024-02-04T22:02:26.141Z,68.30
2024-02-04T22:04:55.629Z,69.15
2024-02-04T22:07:22.451Z,68.05
2024-02-04T22:09:49.307Z,67.70
2024-02-04T22:12:16.083Z,67.32
2024-02-04T22:14:42.857Z,68.45
2024-02-04T22:17:09.628Z,70.28
2024-02-04T22:19:36.478Z,69.47
2024-02-04T22:22:03.409Z,69.10
2024-02-04T22:24:30.181Z,69.20
2024-02-04T22:26:57.003Z,69.50
2024-02-04T22:29:23.805Z,67.18
2024-02-04T22:31:50.549Z,68.00
2024-02-04T22:34:17.347Z,67.00
2024-02-04T22:36:44.163Z,68.43
2024-02-04T22:39:11.280Z,70.13
2024-02-04T22:41:41.786Z,68.78
2024-02-04T22:44:10.126Z,68.55
2024-02-04T22:46:37.260Z,68.25
2024-02-04T22:49:04.886Z,70.93
2024-02-04T22:51:32.746Z,69.70
2024-02-04T22:53:59.571Z,69.85
2024-02-04T22:56:26.330Z,65.78
2024-02-04T22:58:53.097Z,68.43
2024-02-04T23:01:19.946Z,67.45
2024-02-04T23:03:46.854Z,67.80
2024-02-04T23:06:13.744Z,68.10
2024-02-04T23:08:40.692Z,68.78
2024-02-04T23:11:07.533Z,66.85
2024-02-04T23:13:34.408Z,66.70
2024-02-04T23:16:01.435Z,65.95
2024-02-04T23:18:28.270Z,68.25
2024-02-04T23:20:55.003Z,69.07
2024-02-04T23:23:21.736Z,67.90
2024-02-04T23:25:48.569Z,67.47
2024-02-04T23:28:15.354Z,69.70
2024-02-04T23:30:42.152Z,72.25
2024-02-04T23:33:09.019Z,71.40
2024-02-04T23:35:35.827Z,71.18
2024-02-04T23:38:02.656Z,71.32
2024-02-04T23:40:29.510Z,71.35
2024-02-04T23:42:56.367Z,74.05
2024-02-04T23:45:23.235Z,72.57
2024-02-04T23:47:50.034Z,72.05
2024-02-04T23:50:17.614Z,72.38
2024-02-04T23:52:44.569Z,74.80
2024-02-04T23:55:11.585Z,70.82
2024-02-04T23:57:39.319Z,71.10
